sensor_id;sensor_type;location;lat;lon;timestamp;P1;durP1;ratioP1;P2;durP2;ratioP2
19679;SDS011;9989;48.962;9.182;2024-01-06T00:00:20;22.97;;;13.13;;
19679;SDS011;9989;48.962;9.182;2024-01-06T00:02:48;19.87;;;11.80;;
19679;SDS011;9989;48.962;9.182;2024-01-06T00:05:14;17.17;;;9.77;;
19679;SDS011;9989;48.962;9.182;2024-01-06T00:07:40;13.73;;;8.80;;
19679;SDS011;9989;48.962;9.182;2024-01-06T00:10:06;12.93;;;7.40;;
19679;SDS011;9989;48.962;9.182;2024-01-06T00:12:32;12.77;;;6.40;;
19679;SDS011;9989;48.962;9.182;2024-01-06T00:14:57;15.50;;;8.47;;
19679;SDS011;9989;48.962;9.182;2024-01-06T00:17:23;16.83;;;8.60;;
19679;SDS011;9989;48.962;9.182;2024-01-06T00:19:48;13.50;;;7.73;;
19679;SDS011;9989;48.962;9.182;2024-01-06T00:22:19;14.67;;;8.60;;
19679;SDS011;9989;48.962;9.182;2024-01-06T00:24:45;13.23;;;7.73;;
19679;SDS011;9989;48.962;9.182;2024-01-06T00:27:11;14.17;;;9.30;;
19679;SDS011;9989;48.962;9.182;2024-01-06T00:29:38;14.60;;;8.50;;
19679;SDS011;9989;48.962;9.182;2024-01-06T00:32:04;15.40;;;8.07;;
19679;SDS011;9989;48.962;9.182;2024-01-06T00:34:30;13.53;;;7.90;;
19679;SDS011;9989;48.962;9.182;2024-01-06T00:36:56;16.70;;;7.67;;
19679;SDS011;9989;48.962;9.182;2024-01-06T00:39:21;12.53;;;6.93;;
19679;SDS011;9989;48.962;9.182;2024-01-06T00:41:47;14.10;;;7.30;;
19679;SDS011;9989;48.962;9.182;2024-01-06T00:44:12;13.73;;;6.83;;
19679;SDS011;9989;48.962;9.182;2024-01-06T00:46:38;12.77;;;6.47;;
19679;SDS011;9989;48.962;9.182;2024-01-06T00:49:04;17.10;;;7.40;;
19679;SDS011;9989;48.962;9.182;2024-01-06T00:51:30;14.60;;;7.27;;
19679;SDS011;9989;48.962;9.182;2024-01-06T00:53:55;12.93;;;6.50;;
19679;SDS011;9989;48.962;9.182;2024-01-06T00:56:21;13.20;;;7.17;;
19679;SDS011;9989;48.962;9.182;2024-01-06T00:58:47;13.57;;;6.93;;
19679;SDS011;9989;48.962;9.182;2024-01-06T01:01:13;14.80;;;7.30;;
19679;SDS011;9989;48.962;9.182;2024-01-06T01:03:38;15.47;;;7.40;;
19679;SDS011;9989;48.962;9.182;2024-01-06T01:06:04;16.37;;;8.70;;
19679;SDS011;9989;48.962;9.182;2024-01-06T01:08:30;20.83;;;9.00;;
19679;SDS011;9989;48.962;9.182;2024-01-06T01:10:55;17.83;;;8.97;;
19679;SDS011;9989;48.962;9.182;2024-01-06T01:13:22;13.20;;;8.00;;
19679;SDS011;9989;48.962;9.182;2024-01-06T01:15:47;16.43;;;9.07;;
19679;SDS011;9989;48.962;9.182;2024-01-06T01:18:13;16.83;;;9.27;;
19679;SDS011;9989;48.962;9.182;2024-01-06T01:20:39;17.70;;;10.23;;
19679;SDS011;9989;48.962;9.182;2024-01-06T01:23:06;16.53;;;8.47;;
19679;SDS011;9989;48.962;9.182;2024-01-06T01:25:32;13.50;;;7.57;;
19679;SDS011;9989;48.962;9.182;2024-01-06T01:27:58;13.43;;;7.10;;
19679;SDS011;9989;48.962;9.182;2024-01-06T01:30:24;13.87;;;7.57;;
19679;SDS011;9989;48.962;9.182;2024-01-06T01:32:49;15.07;;;7.20;;
19679;SDS011;9989;48.962;9.182;2024-01-06T01:35:15;12.70;;;6.97;;
19679;SDS011;9989;48.962;9.182;2024-01-06T01:37:41;13.83;;;7.07;;
19679;SDS011;9989;48.962;9.182;2024-01-06T01:40:06;13.57;;;6.87;;
19679;SDS011;9989;48.962;9.182;2024-01-06T01:42:33;11.97;;;6.50;;
19679;SDS011;9989;48.962;9.182;2024-01-06T01:44:59;13.70;;;6.67;;
19679;SDS011;9989;48.962;9.182;2024-01-06T01:47:24;12.00;;;5.70;;
19679;SDS011;9989;48.962;9.182;2024-01-06T01:49:51;12.97;;;6.77;;
19679;SDS011;9989;48.962;9.182;2024-01-06T01:52:19;12.33;;;6.50;;
19679;SDS011;9989;48.962;9.182;2024-01-06T01:54:45;13.63;;;6.87;;
19679;SDS011;9989;48.962;9.182;2024-01-06T01:57:11;14.20;;;6.50;;
19679;SDS011;9989;48.962;9.182;2024-01-06T01:59:39;17.20;;;6.93;;
19679;SDS011;9989;48.962;9.182;2024-01-06T02:02:05;14.20;;;7.27;;
19679;SDS011;9989;48.962;9.182;2024-01-06T02:04:32;14.10;;;6.93;;
19679;SDS011;9989;48.962;9.182;2024-01-06T02:06:57;12.87;;;6.73;;
19679;SDS011;9989;48.962;9.182;2024-01-06T02:09:23;12.07;;;7.17;;
19679;SDS011;9989;48.962;9.182;2024-01-06T02:11:52;13.00;;;7.50;;
19679;SDS011;9989;48.962;9.182;2024-01-06T02:14:18;14.23;;;7.70;;
19679;SDS011;9989;48.962;9.182;2024-01-06T02:16:43;12.60;;;7.20;;
19679;SDS011;9989;48.962;9.182;2024-01-06T02:19:09;13.83;;;7.43;;
19679;SDS011;9989;48.962;9.182;2024-01-06T02:21:39;14.70;;;8.43;;
19679;SDS011;9989;48.962;9.182;2024-01-06T02:24:07;13.50;;;7.73;;
19679;SDS011;9989;48.962;9.182;2024-01-06T02:26:34;12.80;;;7.97;;
19679;SDS011;9989;48.962;9.182;2024-01-06T02:28:59;12.20;;;7.40;;
19679;SDS011;9989;48.962;9.182;2024-01-06T02:31:26;15.13;;;8.13;;
19679;SDS011;9989;48.962;9.182;2024-01-06T02:33:52;13.90;;;7.73;;
19679;SDS011;9989;48.962;9.182;2024-01-06T02:36:18;14.70;;;7.93;;
19679;SDS011;9989;48.962;9.182;2024-01-06T02:38:44;18.10;;;9.40;;
19679;SDS011;9989;48.962;9.182;2024-01-06T02:41:09;25.83;;;14.37;;
19679;SDS011;9989;48.962;9.182;2024-01-06T02:43:35;26.00;;;15.97;;
19679;SDS011;9989;48.962;9.182;2024-01-06T02:46:00;21.63;;;13.00;;
19679;SDS011;9989;48.962;9.182;2024-01-06T02:48:26;18.90;;;11.23;;
19679;SDS011;9989;48.962;9.182;2024-01-06T02:50:52;20.63;;;11.77;;
19679;SDS011;9989;48.962;9.182;2024-01-06T02:53:17;18.33;;;10.87;;
19679;SDS011;9989;48.962;9.182;2024-01-06T02:55:43;20.37;;;10.83;;
19679;SDS011;9989;48.962;9.182;2024-01-06T02:58:08;20.90;;;11.27;;
19679;SDS011;9989;48.962;9.182;2024-01-06T03:00:34;15.33;;;8.80;;
19679;SDS011;9989;48.962;9.182;2024-01-06T03:03:00;15.73;;;8.43;;
19679;SDS011;9989;48.962;9.182;2024-01-06T03:05:25;22.33;;;12.13;;
19679;SDS011;9989;48.962;9.182;2024-01-06T03:07:51;20.50;;;11.50;;
19679;SDS011;9989;48.962;9.182;2024-01-06T03:10:17;16.80;;;9.13;;
19679;SDS011;9989;48.962;9.182;2024-01-06T03:12:42;14.37;;;6.63;;
19679;SDS011;9989;48.962;9.182;2024-01-06T03:15:08;12.37;;;6.00;;
19679;SDS011;9989;48.962;9.182;2024-01-06T03:17:34;13.90;;;6.03;;
19679;SDS011;9989;48.962;9.182;2024-01-06T03:20:00;12.73;;;5.37;;
19679;SDS011;9989;48.962;9.182;2024-01-06T03:22:25;10.30;;;5.60;;
19679;SDS011;9989;48.962;9.182;2024-01-06T03:24:51;10.37;;;5.37;;
19679;SDS011;9989;48.962;9.182;2024-01-06T03:27:17;11.60;;;6.00;;
19679;SDS011;9989;48.962;9.182;2024-01-06T03:29:42;10.10;;;4.93;;
19679;SDS011;9989;48.962;9.182;2024-01-06T03:32:08;11.60;;;6.00;;
19679;SDS011;9989;48.962;9.182;2024-01-06T03:34:33;14.30;;;6.50;;
19679;SDS011;9989;48.962;9.182;2024-01-06T03:36:59;14.03;;;6.50;;
19679;SDS011;9989;48.962;9.182;2024-01-06T03:39:25;13.70;;;5.43;;
19679;SDS011;9989;48.962;9.182;2024-01-06T03:41:51;10.80;;;6.17;;
19679;SDS011;9989;48.962;9.182;2024-01-06T03:44:16;16.77;;;6.80;;
19679;SDS011;9989;48.962;9.182;2024-01-06T03:46:42;13.17;;;6.33;;
19679;SDS011;9989;48.962;9.182;2024-01-06T03:49:08;13.73;;;6.50;;
19679;SDS011;9989;48.962;9.182;2024-01-06T03:51:33;14.40;;;6.13;;
19679;SDS011;9989;48.962;9.182;2024-01-06T03:53:59;11.80;;;5.97;;
19679;SDS011;9989;48.962;9.182;2024-01-06T03:56:24;12.13;;;6.60;;
19679;SDS011;9989;48.962;9.182;2024-01-06T03:58:50;10.53;;;4.87;;
19679;SDS011;9989;48.962;9.182;2024-01-06T04:01:16;15.00;;;5.30;;
19679;SDS011;9989;48.962;9.182;2024-01-06T04:03:41;10.47;;;4.30;;
19679;SDS011;9989;48.962;9.182;2024-01-06T04:06:07;11.80;;;4.17;;
19679;SDS011;9989;48.962;9.182;2024-01-06T04:08:33;11.73;;;5.20;;
19679;SDS011;9989;48.962;9.182;2024-01-06T04:10:59;8.73;;;3.83;;
19679;SDS011;9989;48.962;9.182;2024-01-06T04:13:24;9.50;;;3.90;;
19679;SDS011;9989;48.962;9.182;2024-01-06T04:15:50;8.67;;;3.13;;
19679;SDS011;9989;48.962;9.182;2024-01-06T04:18:16;9.57;;;3.67;;
19679;SDS011;9989;48.962;9.182;2024-01-06T04:20:43;8.67;;;3.60;;
19679;SDS011;9989;48.962;9.182;2024-01-06T04:23:08;8.97;;;3.40;;
19679;SDS011;9989;48.962;9.182;2024-01-06T04:25:34;8.80;;;3.20;;
19679;SDS011;9989;48.962;9.182;2024-01-06T04:27:59;8.83;;;3.33;;
19679;SDS011;9989;48.962;9.182;2024-01-06T04:30:25;8.00;;;3.50;;
19679;SDS011;9989;48.962;9.182;2024-01-06T04:32:51;8.00;;;3.37;;
19679;SDS011;9989;48.962;9.182;2024-01-06T04:35:17;9.03;;;3.40;;
19679;SDS011;9989;48.962;9.182;2024-01-06T04:37:45;9.50;;;3.53;;
19679;SDS011;9989;48.962;9.182;2024-01-06T04:40:10;13.77;;;4.07;;
19679;SDS011;9989;48.962;9.182;2024-01-06T04:42:36;7.53;;;3.50;;
19679;SDS011;9989;48.962;9.182;2024-01-06T04:45:02;8.10;;;4.03;;
19679;SDS011;9989;48.962;9.182;2024-01-06T04:47:29;9.67;;;3.70;;
19679;SDS011;9989;48.962;9.182;2024-01-06T04:49:55;7.83;;;3.20;;
19679;SDS011;9989;48.962;9.182;2024-01-06T04:52:21;9.63;;;4.20;;
19679;SDS011;9989;48.962;9.182;2024-01-06T04:54:47;12.43;;;4.30;;
19679;SDS011;9989;48.962;9.182;2024-01-06T04:57:13;13.63;;;5.67;;
19679;SDS011;9989;48.962;9.182;2024-01-06T04:59:39;16.30;;;5.70;;
19679;SDS011;9989;48.962;9.182;2024-01-06T05:02:05;12.50;;;5.10;;
19679;SDS011;9989;48.962;9.182;2024-01-06T05:04:31;9.30;;;4.00;;
19679;SDS011;9989;48.962;9.182;2024-01-06T05:06:57;10.00;;;3.87;;
19679;SDS011;9989;48.962;9.182;2024-01-06T05:09:23;8.97;;;3.80;;
19679;SDS011;9989;48.962;9.182;2024-01-06T05:11:50;11.47;;;4.10;;
19679;SDS011;9989;48.962;9.182;2024-01-06T05:14:15;8.03;;;3.70;;
19679;SDS011;9989;48.962;9.182;2024-01-06T05:16:41;8.27;;;3.67;;
19679;SDS011;9989;48.962;9.182;2024-01-06T05:19:07;8.50;;;3.67;;
19679;SDS011;9989;48.962;9.182;2024-01-06T05:21:33;11.63;;;3.97;;
19679;SDS011;9989;48.962;9.182;2024-01-06T05:24:00;11.50;;;4.53;;
19679;SDS011;9989;48.962;9.182;2024-01-06T05:26:25;10.37;;;3.83;;
19679;SDS011;9989;48.962;9.182;2024-01-06T05:28:51;13.03;;;4.20;;
19679;SDS011;9989;48.962;9.182;2024-01-06T05:31:17;12.23;;;4.03;;
19679;SDS011;9989;48.962;9.182;2024-01-06T05:33:43;9.23;;;3.80;;
19679;SDS011;9989;48.962;9.182;2024-01-06T05:36:08;12.00;;;3.57;;
19679;SDS011;9989;48.962;9.182;2024-01-06T05:38:34;11.00;;;4.07;;
19679;SDS011;9989;48.962;9.182;2024-01-06T05:41:01;7.87;;;3.00;;
19679;SDS011;9989;48.962;9.182;2024-01-06T05:43:27;18.23;;;7.90;;
19679;SDS011;9989;48.962;9.182;2024-01-06T05:45:52;20.60;;;8.50;;
19679;SDS011;9989;48.962;9.182;2024-01-06T05:48:18;19.77;;;8.10;;
19679;SDS011;9989;48.962;9.182;2024-01-06T05:50:44;17.63;;;6.00;;
19679;SDS011;9989;48.962;9.182;2024-01-06T05:53:09;14.90;;;6.73;;
19679;SDS011;9989;48.962;9.182;2024-01-06T05:55:35;23.13;;;10.70;;
19679;SDS011;9989;48.962;9.182;2024-01-06T05:58:01;30.20;;;16.13;;
19679;SDS011;9989;48.962;9.182;2024-01-06T06:00:27;39.17;;;20.60;;
19679;SDS011;9989;48.962;9.182;2024-01-06T06:02:53;41.47;;;19.73;;
19679;SDS011;9989;48.962;9.182;2024-01-06T06:05:18;29.13;;;15.33;;
19679;SDS011;9989;48.962;9.182;2024-01-06T06:07:45;21.30;;;7.13;;
19679;SDS011;9989;48.962;9.182;2024-01-06T06:10:11;15.50;;;6.93;;
19679;SDS011;9989;48.962;9.182;2024-01-06T06:12:37;12.07;;;4.97;;
19679;SDS011;9989;48.962;9.182;2024-01-06T06:15:04;10.90;;;4.07;;
19679;SDS011;9989;48.962;9.182;2024-01-06T06:17:31;10.60;;;4.10;;
19679;SDS011;9989;48.962;9.182;2024-01-06T06:19:57;12.23;;;4.70;;
19679;SDS011;9989;48.962;9.182;2024-01-06T06:22:23;9.57;;;4.03;;
19679;SDS011;9989;48.962;9.182;2024-01-06T06:24:51;8.67;;;3.50;;
19679;SDS011;9989;48.962;9.182;2024-01-06T06:27:17;10.20;;;4.00;;
19679;SDS011;9989;48.962;9.182;2024-01-06T06:29:43;10.30;;;4.77;;
19679;SDS011;9989;48.962;9.182;2024-01-06T06:32:08;8.17;;;3.77;;
19679;SDS011;9989;48.962;9.182;2024-01-06T06:34:34;8.00;;;3.10;;
19679;SDS011;9989;48.962;9.182;2024-01-06T06:36:59;12.10;;;4.27;;
19679;SDS011;9989;48.962;9.182;2024-01-06T06:39:25;10.17;;;4.40;;
19679;SDS011;9989;48.962;9.182;2024-01-06T06:41:52;9.40;;;4.33;;
19679;SDS011;9989;48.962;9.182;2024-01-06T06:44:17;13.10;;;5.57;;
19679;SDS011;9989;48.962;9.182;2024-01-06T06:46:43;12.07;;;5.57;;
19679;SDS011;9989;48.962;9.182;2024-01-06T06:49:09;10.10;;;4.90;;
19679;SDS011;9989;48.962;9.182;2024-01-06T06:51:34;9.77;;;5.13;;
19679;SDS011;9989;48.962;9.182;2024-01-06T06:54:00;10.67;;;4.40;;
19679;SDS011;9989;48.962;9.182;2024-01-06T06:56:25;11.70;;;4.97;;
19679;SDS011;9989;48.962;9.182;2024-01-06T06:58:51;10.67;;;4.90;;
19679;SDS011;9989;48.962;9.182;2024-01-06T07:01:17;11.17;;;5.00;;
19679;SDS011;9989;48.962;9.182;2024-01-06T07:03:43;10.90;;;4.53;;
19679;SDS011;9989;48.962;9.182;2024-01-06T07:06:12;12.23;;;5.40;;
19679;SDS011;9989;48.962;9.182;2024-01-06T07:08:38;9.50;;;4.30;;
19679;SDS011;9989;48.962;9.182;2024-01-06T07:11:04;10.27;;;4.60;;
19679;SDS011;9989;48.962;9.182;2024-01-06T07:13:29;9.83;;;5.00;;
19679;SDS011;9989;48.962;9.182;2024-01-06T07:15:55;11.67;;;6.20;;
19679;SDS011;9989;48.962;9.182;2024-01-06T07:18:20;11.07;;;5.17;;
19679;SDS011;9989;48.962;9.182;2024-01-06T07:20:48;9.10;;;4.50;;
19679;SDS011;9989;48.962;9.182;2024-01-06T07:23:14;11.63;;;4.87;;
19679;SDS011;9989;48.962;9.182;2024-01-06T07:25:39;9.20;;;4.50;;
19679;SDS011;9989;48.962;9.182;2024-01-06T07:28:06;7.77;;;3.93;;
19679;SDS011;9989;48.962;9.182;2024-01-06T07:30:33;9.90;;;4.73;;
19679;SDS011;9989;48.962;9.182;2024-01-06T07:32:59;11.10;;;5.07;;
19679;SDS011;9989;48.962;9.182;2024-01-06T07:35:25;11.30;;;5.73;;
19679;SDS011;9989;48.962;9.182;2024-01-06T07:37:50;11.97;;;5.67;;
19679;SDS011;9989;48.962;9.182;2024-01-06T07:40:16;12.60;;;6.10;;
19679;SDS011;9989;48.962;9.182;2024-01-06T07:42:42;12.23;;;5.60;;
19679;SDS011;9989;48.962;9.182;2024-01-06T07:45:09;10.87;;;4.87;;
19679;SDS011;9989;48.962;9.182;2024-01-06T07:47:34;8.80;;;4.53;;
19679;SDS011;9989;48.962;9.182;2024-01-06T07:50:00;9.40;;;4.50;;
19679;SDS011;9989;48.962;9.182;2024-01-06T07:52:26;9.13;;;4.17;;
19679;SDS011;9989;48.962;9.182;2024-01-06T07:54:52;8.27;;;3.97;;
19679;SDS011;9989;48.962;9.182;2024-01-06T07:57:17;8.00;;;3.57;;
19679;SDS011;9989;48.962;9.182;2024-01-06T07:59:43;8.93;;;4.10;;
19679;SDS011;9989;48.962;9.182;2024-01-06T08:02:10;8.10;;;4.03;;
19679;SDS011;9989;48.962;9.182;2024-01-06T08:04:36;12.77;;;5.10;;
19679;SDS011;9989;48.962;9.182;2024-01-06T08:07:02;8.70;;;4.20;;
19679;SDS011;9989;48.962;9.182;2024-01-06T08:09:27;10.33;;;4.20;;
19679;SDS011;9989;48.962;9.182;2024-01-06T08:11:53;11.00;;;3.97;;
19679;SDS011;9989;48.962;9.182;2024-01-06T08:14:19;10.00;;;4.60;;
19679;SDS011;9989;48.962;9.182;2024-01-06T08:16:44;9.40;;;4.00;;
19679;SDS011;9989;48.962;9.182;2024-01-06T08:19:11;9.07;;;4.00;;
19679;SDS011;9989;48.962;9.182;2024-01-06T08:21:36;8.93;;;4.30;;
19679;SDS011;9989;48.962;9.182;2024-01-06T08:24:02;9.47;;;4.37;;
19679;SDS011;9989;48.962;9.182;2024-01-06T08:26:28;9.33;;;4.53;;
19679;SDS011;9989;48.962;9.182;2024-01-06T08:28:53;13.27;;;4.87;;
19679;SDS011;9989;48.962;9.182;2024-01-06T08:31:19;15.03;;;5.80;;
19679;SDS011;9989;48.962;9.182;2024-01-06T08:33:45;10.77;;;5.07;;
19679;SDS011;9989;48.962;9.182;2024-01-06T08:36:11;10.43;;;5.13;;
19679;SDS011;9989;48.962;9.182;2024-01-06T08:38:37;10.80;;;5.67;;
19679;SDS011;9989;48.962;9.182;2024-01-06T08:41:03;14.03;;;5.37;;
19679;SDS011;9989;48.962;9.182;2024-01-06T08:43:28;12.53;;;5.70;;
19679;SDS011;9989;48.962;9.182;2024-01-06T08:45:54;9.57;;;5.37;;
19679;SDS011;9989;48.962;9.182;2024-01-06T08:48:20;10.97;;;5.83;;
19679;SDS011;9989;48.962;9.182;2024-01-06T08:50:46;11.77;;;5.90;;
19679;SDS011;9989;48.962;9.182;2024-01-06T08:53:12;12.50;;;5.97;;
19679;SDS011;9989;48.962;9.182;2024-01-06T08:55:37;11.57;;;5.77;;
19679;SDS011;9989;48.962;9.182;2024-01-06T08:58:03;10.57;;;5.60;;
19679;SDS011;9989;48.962;9.182;2024-01-06T09:00:29;9.07;;;5.03;;
19679;SDS011;9989;48.962;9.182;2024-01-06T09:02:55;10.33;;;5.63;;
19679;SDS011;9989;48.962;9.182;2024-01-06T09:05:20;17.60;;;8.20;;
19679;SDS011;9989;48.962;9.182;2024-01-06T09:07:46;13.40;;;6.50;;
19679;SDS011;9989;48.962;9.182;2024-01-06T09:10:15;10.30;;;6.10;;
19679;SDS011;9989;48.962;9.182;2024-01-06T09:12:44;10.53;;;6.27;;
19679;SDS011;9989;48.962;9.182;2024-01-06T09:15:09;14.53;;;7.43;;
19679;SDS011;9989;48.962;9.182;2024-01-06T09:17:35;13.73;;;7.40;;
19679;SDS011;9989;48.962;9.182;2024-01-06T09:20:01;18.97;;;9.37;;
19679;SDS011;9989;48.962;9.182;2024-01-06T09:22:28;20.33;;;10.37;;
19679;SDS011;9989;48.962;9.182;2024-01-06T09:24:53;15.00;;;8.27;;
19679;SDS011;9989;48.962;9.182;2024-01-06T09:27:19;13.20;;;6.90;;
19679;SDS011;9989;48.962;9.182;2024-01-06T09:29:45;12.73;;;6.23;;
19679;SDS011;9989;48.962;9.182;2024-01-06T09:32:10;13.97;;;7.27;;
19679;SDS011;9989;48.962;9.182;2024-01-06T09:34:36;10.77;;;6.50;;
19679;SDS011;9989;48.962;9.182;2024-01-06T09:37:02;10.10;;;6.07;;
19679;SDS011;9989;48.962;9.182;2024-01-06T09:39:28;11.10;;;5.60;;
19679;SDS011;9989;48.962;9.182;2024-01-06T09:41:55;11.83;;;5.90;;
19679;SDS011;9989;48.962;9.182;2024-01-06T09:44:21;11.37;;;5.63;;
19679;SDS011;9989;48.962;9.182;2024-01-06T09:46:47;10.53;;;5.30;;
19679;SDS011;9989;48.962;9.182;2024-01-06T09:49:14;13.07;;;5.97;;
19679;SDS011;9989;48.962;9.182;2024-01-06T09:51:41;9.47;;;5.60;;
19679;SDS011;9989;48.962;9.182;2024-01-06T09:54:10;13.20;;;6.10;;
19679;SDS011;9989;48.962;9.182;2024-01-06T09:56:38;12.80;;;6.07;;
19679;SDS011;9989;48.962;9.182;2024-01-06T09:59:04;12.63;;;5.90;;
19679;SDS011;9989;48.962;9.182;2024-01-06T10:01:30;13.37;;;6.77;;
19679;SDS011;9989;48.962;9.182;2024-01-06T10:03:56;12.40;;;6.20;;
19679;SDS011;9989;48.962;9.182;2024-01-06T10:06:21;11.80;;;6.40;;
19679;SDS011;9989;48.962;9.182;2024-01-06T10:08:51;12.00;;;6.70;;
19679;SDS011;9989;48.962;9.182;2024-01-06T10:11:23;13.07;;;6.17;;
19679;SDS011;9989;48.962;9.182;2024-01-06T10:13:49;11.67;;;6.13;;
19679;SDS011;9989;48.962;9.182;2024-01-06T10:16:16;12.17;;;6.20;;
19679;SDS011;9989;48.962;9.182;2024-01-06T10:18:42;14.40;;;6.97;;
19679;SDS011;9989;48.962;9.182;2024-01-06T10:21:09;13.23;;;7.23;;
19679;SDS011;9989;48.962;9.182;2024-01-06T10:23:35;13.70;;;6.97;;
19679;SDS011;9989;48.962;9.182;2024-01-06T10:26:01;10.97;;;5.83;;
19679;SDS011;9989;48.962;9.182;2024-01-06T10:28:28;11.00;;;5.83;;
19679;SDS011;9989;48.962;9.182;2024-01-06T10:30:57;12.63;;;6.40;;
19679;SDS011;9989;48.962;9.182;2024-01-06T10:33:23;12.93;;;6.57;;
19679;SDS011;9989;48.962;9.182;2024-01-06T10:35:50;10.27;;;5.73;;
19679;SDS011;9989;48.962;9.182;2024-01-06T10:38:17;10.77;;;5.63;;
19679;SDS011;9989;48.962;9.182;2024-01-06T10:40:55;12.53;;;6.10;;
19679;SDS011;9989;48.962;9.182;2024-01-06T10:43:22;11.53;;;5.70;;
19679;SDS011;9989;48.962;9.182;2024-01-06T10:45:50;12.13;;;6.30;;
19679;SDS011;9989;48.962;9.182;2024-01-06T10:48:17;11.30;;;5.53;;
19679;SDS011;9989;48.962;9.182;2024-01-06T10:50:45;10.30;;;5.63;;
19679;SDS011;9989;48.962;9.182;2024-01-06T10:53:12;11.53;;;5.63;;
19679;SDS011;9989;48.962;9.182;2024-01-06T10:55:40;11.37;;;6.30;;
19679;SDS011;9989;48.962;9.182;2024-01-06T10:58:06;11.93;;;5.77;;
19679;SDS011;9989;48.962;9.182;2024-01-06T11:00:34;12.07;;;5.87;;
19679;SDS011;9989;48.962;9.182;2024-01-06T11:02:59;12.67;;;6.17;;
19679;SDS011;9989;48.962;9.182;2024-01-06T11:05:26;12.00;;;5.37;;
19679;SDS011;9989;48.962;9.182;2024-01-06T11:07:53;12.63;;;5.80;;
19679;SDS011;9989;48.962;9.182;2024-01-06T11:10:24;9.77;;;5.17;;
19679;SDS011;9989;48.962;9.182;2024-01-06T11:13:11;13.40;;;5.70;;
19679;SDS011;9989;48.962;9.182;2024-01-06T11:15:44;11.57;;;5.67;;
19679;SDS011;9989;48.962;9.182;2024-01-06T11:18:36;12.33;;;5.90;;
19679;SDS011;9989;48.962;9.182;2024-01-06T11:23:39;10.33;;;5.43;;
19679;SDS011;9989;48.962;9.182;2024-01-06T11:26:09;11.23;;;6.60;;
19679;SDS011;9989;48.962;9.182;2024-01-06T11:28:47;11.43;;;5.93;;
19679;SDS011;9989;48.962;9.182;2024-01-06T11:31:15;11.90;;;5.77;;
19679;SDS011;9989;48.962;9.182;2024-01-06T11:33:44;12.63;;;6.53;;
19679;SDS011;9989;48.962;9.182;2024-01-06T11:36:12;12.43;;;6.20;;
19679;SDS011;9989;48.962;9.182;2024-01-06T11:38:44;12.37;;;6.50;;
19679;SDS011;9989;48.962;9.182;2024-01-06T11:41:44;11.10;;;6.53;;
19679;SDS011;9989;48.962;9.182;2024-01-06T11:44:23;10.87;;;5.97;;
19679;SDS011;9989;48.962;9.182;2024-01-06T11:46:48;11.47;;;6.10;;
19679;SDS011;9989;48.962;9.182;2024-01-06T11:49:15;10.37;;;5.93;;
19679;SDS011;9989;48.962;9.182;2024-01-06T11:51:41;13.13;;;6.43;;
19679;SDS011;9989;48.962;9.182;2024-01-06T11:54:07;10.73;;;6.10;;
19679;SDS011;9989;48.962;9.182;2024-01-06T11:56:34;11.83;;;6.47;;
19679;SDS011;9989;48.962;9.182;2024-01-06T11:59:00;11.00;;;6.20;;
19679;SDS011;9989;48.962;9.182;2024-01-06T12:01:25;11.27;;;6.23;;
19679;SDS011;9989;48.962;9.182;2024-01-06T12:03:54;11.47;;;6.33;;
19679;SDS011;9989;48.962;9.182;2024-01-06T12:06:21;10.53;;;5.70;;
19679;SDS011;9989;48.962;9.182;2024-01-06T12:08:47;10.97;;;5.87;;
19679;SDS011;9989;48.962;9.182;2024-01-06T12:11:12;10.33;;;5.97;;
19679;SDS011;9989;48.962;9.182;2024-01-06T12:13:43;11.63;;;5.60;;
19679;SDS011;9989;48.962;9.182;2024-01-06T12:16:09;9.87;;;5.73;;
19679;SDS011;9989;48.962;9.182;2024-01-06T12:18:35;11.63;;;6.33;;
19679;SDS011;9989;48.962;9.182;2024-01-06T12:21:01;9.93;;;5.50;;
19679;SDS011;9989;48.962;9.182;2024-01-06T12:23:27;12.47;;;6.23;;
19679;SDS011;9989;48.962;9.182;2024-01-06T12:25:55;11.07;;;6.17;;
19679;SDS011;9989;48.962;9.182;2024-01-06T12:28:21;10.73;;;6.37;;
19679;SDS011;9989;48.962;9.182;2024-01-06T12:30:47;10.50;;;5.20;;
19679;SDS011;9989;48.962;9.182;2024-01-06T12:33:13;11.47;;;5.67;;
19679;SDS011;9989;48.962;9.182;2024-01-06T12:35:39;10.83;;;5.83;;
19679;SDS011;9989;48.962;9.182;2024-01-06T12:38:07;9.50;;;5.40;;
19679;SDS011;9989;48.962;9.182;2024-01-06T12:40:35;10.60;;;5.80;;
19679;SDS011;9989;48.962;9.182;2024-01-06T12:43:02;10.10;;;5.67;;
19679;SDS011;9989;48.962;9.182;2024-01-06T12:45:28;10.90;;;5.77;;
19679;SDS011;9989;48.962;9.182;2024-01-06T12:47:54;10.97;;;6.17;;
19679;SDS011;9989;48.962;9.182;2024-01-06T12:50:19;11.77;;;6.00;;
19679;SDS011;9989;48.962;9.182;2024-01-06T12:52:45;13.93;;;7.30;;
19679;SDS011;9989;48.962;9.182;2024-01-06T12:55:11;11.93;;;6.53;;
19679;SDS011;9989;48.962;9.182;2024-01-06T12:57:37;11.03;;;6.73;;
19679;SDS011;9989;48.962;9.182;2024-01-06T13:00:03;11.17;;;6.43;;
19679;SDS011;9989;48.962;9.182;2024-01-06T13:02:31;12.40;;;7.03;;
19679;SDS011;9989;48.962;9.182;2024-01-06T13:04:56;10.93;;;6.10;;
19679;SDS011;9989;48.962;9.182;2024-01-06T13:07:22;12.40;;;7.50;;
19679;SDS011;9989;48.962;9.182;2024-01-06T13:09:48;11.50;;;6.67;;
19679;SDS011;9989;48.962;9.182;2024-01-06T13:12:15;12.07;;;6.57;;
19679;SDS011;9989;48.962;9.182;2024-01-06T13:14:42;12.40;;;6.20;;
19679;SDS011;9989;48.962;9.182;2024-01-06T13:17:09;14.63;;;6.70;;
19679;SDS011;9989;48.962;9.182;2024-01-06T13:19:35;13.70;;;6.97;;
19679;SDS011;9989;48.962;9.182;2024-01-06T13:22:00;12.67;;;7.10;;
19679;SDS011;9989;48.962;9.182;2024-01-06T13:24:26;19.43;;;8.10;;
19679;SDS011;9989;48.962;9.182;2024-01-06T13:26:51;17.37;;;7.80;;
19679;SDS011;9989;48.962;9.182;2024-01-06T13:29:17;13.57;;;6.90;;
19679;SDS011;9989;48.962;9.182;2024-01-06T13:31:44;12.20;;;6.40;;
19679;SDS011;9989;48.962;9.182;2024-01-06T13:34:09;12.50;;;6.70;;
19679;SDS011;9989;48.962;9.182;2024-01-06T13:36:35;14.43;;;6.97;;
19679;SDS011;9989;48.962;9.182;2024-01-06T13:39:01;11.10;;;6.53;;
19679;SDS011;9989;48.962;9.182;2024-01-06T13:41:29;11.20;;;6.23;;
19679;SDS011;9989;48.962;9.182;2024-01-06T13:43:54;11.60;;;6.60;;
19679;SDS011;9989;48.962;9.182;2024-01-06T13:46:20;11.77;;;6.73;;
19679;SDS011;9989;48.962;9.182;2024-01-06T13:48:45;12.00;;;7.17;;
19679;SDS011;9989;48.962;9.182;2024-01-06T13:51:11;10.93;;;6.70;;
19679;SDS011;9989;48.962;9.182;2024-01-06T13:53:37;10.50;;;6.20;;
19679;SDS011;9989;48.962;9.182;2024-01-06T13:56:03;13.30;;;7.23;;
19679;SDS011;9989;48.962;9.182;2024-01-06T13:58:29;12.30;;;7.07;;
19679;SDS011;9989;48.962;9.182;2024-01-06T14:00:55;11.67;;;6.30;;
19679;SDS011;9989;48.962;9.182;2024-01-06T14:03:21;11.57;;;6.47;;
19679;SDS011;9989;48.962;9.182;2024-01-06T14:05:47;12.63;;;7.00;;
19679;SDS011;9989;48.962;9.182;2024-01-06T14:08:13;13.73;;;7.13;;
19679;SDS011;9989;48.962;9.182;2024-01-06T14:10:39;13.07;;;6.57;;
19679;SDS011;9989;48.962;9.182;2024-01-06T14:13:04;11.90;;;7.50;;
19679;SDS011;9989;48.962;9.182;2024-01-06T14:15:32;11.60;;;6.40;;
19679;SDS011;9989;48.962;9.182;2024-01-06T14:18:00;12.00;;;6.50;;
19679;SDS011;9989;48.962;9.182;2024-01-06T14:20:26;12.73;;;7.10;;
19679;SDS011;9989;48.962;9.182;2024-01-06T14:22:52;13.87;;;8.23;;
19679;SDS011;9989;48.962;9.182;2024-01-06T14:25:18;15.83;;;8.00;;
19679;SDS011;9989;48.962;9.182;2024-01-06T14:27:44;12.53;;;7.73;;
19679;SDS011;9989;48.962;9.182;2024-01-06T14:30:10;14.60;;;8.73;;
19679;SDS011;9989;48.962;9.182;2024-01-06T14:32:36;12.37;;;7.63;;
19679;SDS011;9989;48.962;9.182;2024-01-06T14:35:04;14.07;;;7.83;;
19679;SDS011;9989;48.962;9.182;2024-01-06T14:37:31;14.90;;;8.67;;
19679;SDS011;9989;48.962;9.182;2024-01-06T14:39:57;14.77;;;9.10;;
19679;SDS011;9989;48.962;9.182;2024-01-06T14:42:23;13.83;;;8.73;;
19679;SDS011;9989;48.962;9.182;2024-01-06T14:44:48;14.23;;;7.80;;